Accueil
METAR-TAF:

METAR-TAF

Aéroports :

Dortmund, Allemagne

Aéroport de Dortmund

latitude: 51-31N, longitude: 007-37E, altitude: 127 m

Observation

Le bulletin a été fait il y a 29 minutes, à 10:20 UTC
Vent 10 kt de ouest/sud-ouest, variant entre sud/sud-ouest et ouest
Température 18°C
Humidité 68%
Pression 997 hPa
Visibilité 10 km ou plus
Nuages fragmentés à une hauteur de 2100 ft

METAR: EDLW 291020Z 24010KT 210V270 9999 BKN021 18/12 Q0997

Heure: 12:49 (10:49 UTC)

Prévision

Le bulletin a été fait il y a 5 heures et 49 minutes, à 05:00 UTC
Prévision valable du 29 à 06 UTC au 30 à 06 UTC
Vent 7 kt de sud/sud-ouest
Visibilité 10 km ou plus
Nuages épars à une hauteur de 4500 ft
Probabilité 30% :
Temporairement
du 29 à 08 UTC au 29 à 13 UTC
Nuages fragmentés à une hauteur de 3000 ft, Cumulonimbus.
averses de pluie

TAF: EDLW 290500Z 2906/3006 21007KT 9999 SCT045 PROB30 TEMPO 2908/2913 SHRA BKN030CB

Observations et prévisions météorologiques de plus de 4000 aéroports (messages METAR et TAF).

Les stations disponibles sont représentées par des disques jaunes et rouges sur la carte.

Passer la souris dessus pour voir le nom de la station.

Cliquer dessus pour voir les observations et prévisions météorologiques.

Pour changer de carte: cliquez sur les boutons verts avec une croix noire pour zoomer, sur le bouton vert avec un tiret pour effectuer un zoom arrière, ou sur les flèches vertes pour les cartes adjacentes.


METAR-TAF: